Billmaier — AEHT — position and weather

sailwx.info

Track history (hours):
 
Tides and Currents Weather Stations Pressure Air Temp Water Temp Dewpoint Dewpoint Depression Visibility Wind Speed Wind Dir Waves Ship Positions

Billmaier

Last reported at 2017-Nov-16 20:41 UTC. Time now 2017-Nov-18 01:08 UTC.
Position N 46°47' W 092°06'.

Type: Tug. MMSI: 366999402.

Date/timePositionNaut miles runAvg speedWind from/ knotsBaromVisibWave heightAir tempDewpointWater temp
2017-Nov-16 20:41N 46°47' W 092°06'0 1.6
2017-Nov-16 20:30N 46°46' W 092°06'3 5.5
2017-Nov-16 20:00N 46°44' W 092°09'3 5.8
2017-Nov-16 19:30N 46°46' W 092°06'0 0.5
2017-Nov-16 19:00N 46°47' W 092°06'0 0.0
2017-Nov-16 18:30N 46°47' W 092°06'0 0.8
2017-Nov-16 18:00N 46°46' W 092°06'4 8.0
2017-Nov-16 17:30N 46°43' W 092°03'3 5.2
2017-Nov-16 17:00N 46°45' W 092°05'2 3.7
2017-Nov-16 16:30N 46°47' W 092°06'0 0.0
2017-Nov-16 16:00N 46°47' W 092°06'1 1.2
2017-Nov-16 15:30N 46°46' W 092°06'3 5.0
2017-Nov-16 14:59N 46°44' W 092°09'0 0.0
2017-Nov-16 14:30N 46°44' W 092°09'0 0.1
2017-Nov-16 13:16N 46°44' W 092°09'0 0.0
2017-Nov-16 12:55N 46°44' W 092°09'0 0.0
2017-Nov-16 12:30N 46°44' W 092°09'0 0.0
2017-Nov-16 11:44N 46°44' W 092°09'0 0.0
2017-Nov-16 11:30N 46°44' W 092°09'0 0.0
2017-Nov-16 10:56N 46°44' W 092°09'0 0.0
2017-Nov-16 09:14N 46°44' W 092°09'0 0.0
2017-Nov-16 08:41N 46°44' W 092°09'0 0.0
2017-Nov-16 08:25N 46°44' W 092°09'0 0.0
2017-Nov-16 07:56N 46°44' W 092°09'0 0.0
2017-Nov-16 06:11N 46°44' W 092°09'0 0.0
2017-Nov-16 05:04N 46°44' W 092°09'0 0.0
2017-Nov-16 04:59N 46°44' W 092°09'0 0.0
2017-Nov-16 02:59N 46°44' W 092°09'0 0.0
2017-Nov-16 01:58N 46°44' W 092°09'0 0.0
2017-Nov-16 01:05N 46°44' W 092°09'0 0.0
2017-Nov-15 23:26N 46°44' W 092°09'0 0.0
2017-Nov-15 22:58N 46°44' W 092°09'0 0.0
2017-Nov-15 22:30N 46°44' W 092°09'0 0.0
2017-Nov-15 21:58N 46°44' W 092°09'0 0.0
2017-Nov-15 21:26N 46°44' W 092°09'0 0.1
2017-Nov-15 21:00N 46°44' W 092°09'0 0.1
2017-Nov-15 20:30N 46°44' W 092°09'1 2.7
2017-Nov-15 20:00N 46°45' W 092°07'3 6.3
2017-Nov-15 19:30N 46°43' W 092°03'0 0.7
2017-Nov-15 19:00N 46°43' W 092°03'1 2.0
2017-Nov-15 18:26N 46°42' W 092°01'0 0.0
2017-Nov-15 17:58N 46°42' W 092°01'0 0.0
2017-Nov-15 17:30N 46°42' W 092°01'0 0.1
2017-Nov-15 16:44N 46°42' W 092°01'0 0.0
2017-Nov-15 16:27N 46°42' W 092°01'0 0.0
2017-Nov-15 15:59N 46°42' W 092°01'0 0.0
2017-Nov-15 15:30N 46°42' W 092°01'0 0.0
2017-Nov-15 15:00N 46°42' W 092°01'0 0.0
2017-Nov-15 14:30N 46°42' W 092°01'1 0.8
2017-Nov-15 13:45N 46°42' W 092°01'0 0.0
2017-Nov-15 13:17N 46°42' W 092°01'0 0.0
2017-Nov-15 12:58N 46°42' W 092°01'0 0.0
2017-Nov-15 12:30N 46°42' W 092°01'0 0.0
2017-Nov-15 11:51N 46°42' W 092°01'0 0.0
2017-Nov-15 11:24N 46°42' W 092°01'0 0.0
2017-Nov-15 10:49N 46°42' W 092°01'0 0.0
2017-Nov-15 10:08N 46°42' W 092°01'0 0.0
2017-Nov-15 09:59N 46°42' W 092°01'0 0.0
2017-Nov-15 09:29N 46°42' W 092°01'0 0.0
2017-Nov-15 08:54N 46°42' W 092°01'0 0.0
2017-Nov-15 08:21N 46°42' W 092°01'0 0.0
2017-Nov-15 07:50N 46°42' W 092°01'0 0.0
2017-Nov-15 07:26N 46°42' W 092°01'0 0.0
2017-Nov-15 06:59N 46°42' W 092°01'0 0.0
2017-Nov-15 06:30N 46°42' W 092°01'0 0.0
2017-Nov-15 05:20N 46°42' W 092°01'0 0.0
2017-Nov-15 04:14N 46°42' W 092°01'0 0.0
2017-Nov-15 03:59N 46°42' W 092°01'0 0.0
2017-Nov-15 03:29N 46°42' W 092°01'0 0.0
2017-Nov-15 02:52N 46°42' W 092°01'0 0.0
2017-Nov-15 01:49N 46°42' W 092°01'0 0.0
2017-Nov-15 01:28N 46°42' W 092°01'0 0.0
2017-Nov-15 00:56N 46°42' W 092°01'0 0.0
2017-Nov-15 00:27N 46°42' W 092°01'0 0.0
2017-Nov-15 00:00N 46°42' W 092°01'0 0.0
2017-Nov-14 23:29N 46°42' W 092°01'0 0.0
2017-Nov-14 22:59N 46°42' W 092°01'1 1.0
2017-Nov-14 22:24N 46°42' W 092°01'0 0.0
2017-Nov-14 21:59N 46°42' W 092°01'0 0.0
2017-Nov-14 21:21N 46°42' W 092°01'0 0.0
2017-Nov-14 20:47N 46°42' W 092°01'0 0.0
2017-Nov-14 20:24N 46°42' W 092°01'0 0.0
2017-Nov-14 19:48N 46°42' W 092°01'0 0.0
2017-Nov-14 19:21N 46°42' W 092°01'0 0.0
2017-Nov-14 19:00N 46°42' W 092°01'0 0.0
2017-Nov-14 18:29N 46°42' W 092°01'0 0.0
2017-Nov-14 17:57N 46°42' W 092°01'0 0.0
2017-Nov-14 17:30N 46°42' W 092°01'0 0.0
2017-Nov-14 17:00N 46°42' W 092°01'0 0.0
2017-Nov-14 16:29N 46°42' W 092°01'0 0.0
2017-Nov-14 15:54N 46°42' W 092°01'0 0.0
2017-Nov-14 15:26N 46°42' W 092°01'0 0.0
2017-Nov-14 14:59N 46°42' W 092°01'0 0.0
2017-Nov-14 14:30N 46°42' W 092°01'1 0.9
2017-Nov-14 13:50N 46°42' W 092°01'0 0.0
2017-Nov-14 13:26N 46°42' W 092°01'0 0.0
2017-Nov-14 13:00N 46°42' W 092°01'0 0.0
2017-Nov-14 12:30N 46°42' W 092°01'0 0.0
2017-Nov-14 11:43N 46°42' W 092°01'0 0.0
2017-Nov-14 11:27N 46°42' W 092°01'0 0.0
2017-Nov-14 10:23N 46°42' W 092°01'0 0.0
2017-Nov-14 09:54N 46°42' W 092°01'0 0.0
2017-Nov-14 09:29N 46°42' W 092°01'0 0.0
2017-Nov-14 08:58N 46°42' W 092°01'0 0.0
2017-Nov-14 08:25N 46°42' W 092°01'0 0.0
2017-Nov-14 07:58N 46°42' W 092°01'0 0.0
2017-Nov-14 07:16N 46°42' W 092°01'0 0.0
2017-Nov-14 06:55N 46°42' W 092°01'0 0.0
2017-Nov-14 05:54N 46°42' W 092°01'0 0.0
2017-Nov-14 05:25N 46°42' W 092°01'0 0.0
2017-Nov-14 03:53N 46°42' W 092°01'0 0.0
2017-Nov-14 03:02N 46°42' W 092°01'0 0.0
2017-Nov-14 02:53N 46°42' W 092°01'0 0.0
2017-Nov-14 02:20N 46°42' W 092°01'0 0.0
2017-Nov-14 01:57N 46°42' W 092°01'0 0.0
2017-Nov-14 01:02N 46°42' W 092°01'0 0.0
2017-Nov-14 00:56N 46°42' W 092°01'0 0.0
2017-Nov-14 00:30N 46°42' W 092°01'0 0.0
2017-Nov-13 23:42N 46°42' W 092°01'0 0.0
2017-Nov-13 23:24N 46°42' W 092°01'0 0.0
2017-Nov-13 23:00N 46°42' W 092°01'1 1.3
2017-Nov-13 22:30N 46°42' W 092°01'0 0.0
2017-Nov-13 22:00N 46°42' W 092°01'  
2017-Nov-08 22:26N 46°47' W 092°06'0 0.2
2017-Nov-08 22:00N 46°46' W 092°06'3 6.1
2017-Nov-08 21:30N 46°44' W 092°04'2 4.3
2017-Nov-08 20:58N 46°42' W 092°01'0 0.0
2017-Nov-08 20:30N 46°42' W 092°01'0 0.0
2017-Nov-08 20:00N 46°42' W 092°01'0 0.3
2017-Nov-08 19:29N 46°42' W 092°01'0 0.0
2017-Nov-08 18:59N 46°42' W 092°01'0 0.0
2017-Nov-08 18:25N 46°42' W 092°01'0 0.0
2017-Nov-08 17:58N 46°42' W 092°01'0 0.0
2017-Nov-08 17:23N 46°42' W 092°01'0 0.0
2017-Nov-08 16:54N 46°42' W 092°01'0 0.0
2017-Nov-08 16:29N 46°42' W 092°01'0 0.0
2017-Nov-08 15:58N 46°42' W 092°01'0 0.0
2017-Nov-08 15:26N 46°42' W 092°01'1 1.5
2017-Nov-08 15:00N 46°42' W 092°01'0 0.0
2017-Nov-08 14:30N 46°42' W 092°01'0 0.0
2017-Nov-08 13:59N 46°42' W 092°01'0 0.0
2017-Nov-08 13:30N 46°42' W 092°01'0 0.0
2017-Nov-08 12:58N 46°42' W 092°01'0 0.0
2017-Nov-08 12:29N 46°42' W 092°01'0 0.0
2017-Nov-08 12:00N 46°42' W 092°01'0 0.0
2017-Nov-08 11:30N 46°42' W 092°01'0 0.0
2017-Nov-08 10:59N 46°42' W 092°01'0 0.0
2017-Nov-08 10:28N 46°42' W 092°01'0 0.0
2017-Nov-08 09:57N 46°42' W 092°01'0 0.0
2017-Nov-08 09:17N 46°42' W 092°01'0 0.0
2017-Nov-08 08:59N 46°42' W 092°01'0 0.0
2017-Nov-08 08:29N 46°42' W 092°01'0 0.0
2017-Nov-08 06:55N 46°42' W 092°01'0 0.0
2017-Nov-08 05:54N 46°42' W 092°01'0 0.0
2017-Nov-08 05:29N 46°42' W 092°01'0 0.0
2017-Nov-08 04:46N 46°42' W 092°01'0 0.0
2017-Nov-08 04:30N 46°42' W 092°01'0 0.0
2017-Nov-08 03:56N 46°42' W 092°01'0 0.0
2017-Nov-08 02:28N 46°42' W 092°01'0 0.0
2017-Nov-08 01:59N 46°42' W 092°01'0 0.0
2017-Nov-08 01:03N 46°42' W 092°01'0 0.0
2017-Nov-08 00:33N 46°42' W 092°01'0 0.0
2017-Nov-08 00:23N 46°42' W 092°01'0 0.0
2017-Nov-08 00:00N 46°42' W 092°01'0 0.0
2017-Nov-07 23:23N 46°42' W 092°01'0 0.0
2017-Nov-07 23:00N 46°42' W 092°01'0 0.1
2017-Nov-07 22:30N 46°42' W 092°01'0 0.0
2017-Nov-07 21:59N 46°42' W 092°01'0 0.0
2017-Nov-07 21:30N 46°42' W 092°01'0 0.0
2017-Nov-07 21:00N 46°42' W 092°01'0 0.0
2017-Nov-07 20:29N 46°42' W 092°01'0 0.9
2017-Nov-07 20:00N 46°42' W 092°01'0 0.4
2017-Nov-07 19:30N 46°42' W 092°01'0 0.5
2017-Nov-07 19:00N 46°42' W 092°01'0 0.3
2017-Nov-07 18:18N 46°42' W 092°01'0 0.0
2017-Nov-07 17:58N 46°42' W 092°01'0 0.0
2017-Nov-07 17:20N 46°42' W 092°01'0 0.0
2017-Nov-07 16:56N 46°42' W 092°01'0 0.0
2017-Nov-07 16:27N 46°42' W 092°01'0 0.0
2017-Nov-07 16:00N 46°42' W 092°01'0 0.0
2017-Nov-07 15:29N 46°42' W 092°01'0 0.0
2017-Nov-07 14:56N 46°42' W 092°01'0 0.0
2017-Nov-07 14:30N 46°42' W 092°01'1 1.2
2017-Nov-07 14:00N 46°42' W 092°01'0 0.0
2017-Nov-07 13:30N 46°42' W 092°01'0 0.0
2017-Nov-07 12:59N 46°42' W 092°01'0 0.0
2017-Nov-07 12:26N 46°42' W 092°01'0 0.0
2017-Nov-07 12:00N 46°42' W 092°01'0 0.0
2017-Nov-07 10:34N 46°42' W 092°01'0 0.1
2017-Nov-07 10:28N 46°42' W 092°01'0 0.0
2017-Nov-07 10:00N 46°42' W 092°01'0 0.0
2017-Nov-07 09:28N 46°42' W 092°01'0 0.0
2017-Nov-07 08:52N 46°42' W 092°01'0 0.0
2017-Nov-07 08:28N 46°42' W 092°01'0 0.0
2017-Nov-07 08:00N 46°42' W 092°01'0 0.0
2017-Nov-07 07:29N 46°42' W 092°01'0 0.0
2017-Nov-07 06:58N 46°42' W 092°01'0 0.0
2017-Nov-07 05:53N 46°42' W 092°01'0 0.0
2017-Nov-07 05:23N 46°42' W 092°01'0 0.0
2017-Nov-07 04:59N 46°42' W 092°01'0 0.0
2017-Nov-07 03:38N 46°42' W 092°01'0 0.0
2017-Nov-07 03:29N 46°42' W 092°01'0 0.0
2017-Nov-07 03:00N 46°42' W 092°01'0 0.0
2017-Nov-07 02:26N 46°42' W 092°01'0 0.0
2017-Nov-07 02:00N 46°42' W 092°01'0 0.0
2017-Nov-07 00:42N 46°42' W 092°01'0 0.0
2017-Nov-07 00:24N 46°42' W 092°01'0 0.0
2017-Nov-06 23:38N 46°42' W 092°01'0 0.0
2017-Nov-06 23:29N 46°42' W 092°01'0 0.0
2017-Nov-06 22:56N 46°42' W 092°01'1 1.3
2017-Nov-06 22:28N 46°42' W 092°01'0 0.0
2017-Nov-06 21:59N 46°42' W 092°01'1 1.2
2017-Nov-06 21:30N 46°42' W 092°01'0 0.0
2017-Nov-06 20:47N 46°42' W 092°01'  
Track history (hours):
 
Tides and Currents Weather Stations Pressure Air Temp Water Temp Dewpoint Dewpoint Depression Visibility Wind Speed Wind Dir Waves Ship Positions

Billmaier

Last reported at 2017-Nov-16 20:41 UTC. Time now 2017-Nov-18 01:08 UTC.
Position N 46°47' W 092°06'.

Type: Tug. MMSI: 366999402.

Date/timePositionNaut miles runAvg speedWind from/ knotsBaromVisibWave heightAir tempDewpointWater temp
2017-Nov-16 20:41N 46°47' W 092°06'0 1.6
2017-Nov-16 20:30N 46°46' W 092°06'3 5.5
2017-Nov-16 20:00N 46°44' W 092°09'3 5.8
2017-Nov-16 19:30N 46°46' W 092°06'0 0.5
2017-Nov-16 19:00N 46°47' W 092°06'0 0.0
2017-Nov-16 18:30N 46°47' W 092°06'0 0.8
2017-Nov-16 18:00N 46°46' W 092°06'4 8.0
2017-Nov-16 17:30N 46°43' W 092°03'3 5.2
2017-Nov-16 17:00N 46°45' W 092°05'2 3.7
2017-Nov-16 16:30N 46°47' W 092°06'0 0.0
2017-Nov-16 16:00N 46°47' W 092°06'1 1.2
2017-Nov-16 15:30N 46°46' W 092°06'3 5.0
2017-Nov-16 14:59N 46°44' W 092°09'0 0.0
2017-Nov-16 14:30N 46°44' W 092°09'0 0.1
2017-Nov-16 13:16N 46°44' W 092°09'0 0.0
2017-Nov-16 12:55N 46°44' W 092°09'0 0.0
2017-Nov-16 12:30N 46°44' W 092°09'0 0.0
2017-Nov-16 11:44N 46°44' W 092°09'0 0.0
2017-Nov-16 11:30N 46°44' W 092°09'0 0.0
2017-Nov-16 10:56N 46°44' W 092°09'0 0.0
2017-Nov-16 09:14N 46°44' W 092°09'0 0.0
2017-Nov-16 08:41N 46°44' W 092°09'0 0.0
2017-Nov-16 08:25N 46°44' W 092°09'0 0.0
2017-Nov-16 07:56N 46°44' W 092°09'0 0.0
2017-Nov-16 06:11N 46°44' W 092°09'0 0.0
2017-Nov-16 05:04N 46°44' W 092°09'0 0.0
2017-Nov-16 04:59N 46°44' W 092°09'0 0.0
2017-Nov-16 02:59N 46°44' W 092°09'0 0.0
2017-Nov-16 01:58N 46°44' W 092°09'0 0.0
2017-Nov-16 01:05N 46°44' W 092°09'0 0.0
2017-Nov-15 23:26N 46°44' W 092°09'0 0.0
2017-Nov-15 22:58N 46°44' W 092°09'0 0.0
2017-Nov-15 22:30N 46°44' W 092°09'0 0.0
2017-Nov-15 21:58N 46°44' W 092°09'0 0.0
2017-Nov-15 21:26N 46°44' W 092°09'0 0.1
2017-Nov-15 21:00N 46°44' W 092°09'0 0.1
2017-Nov-15 20:30N 46°44' W 092°09'1 2.7
2017-Nov-15 20:00N 46°45' W 092°07'3 6.3
2017-Nov-15 19:30N 46°43' W 092°03'0 0.7
2017-Nov-15 19:00N 46°43' W 092°03'1 2.0
2017-Nov-15 18:26N 46°42' W 092°01'0 0.0
2017-Nov-15 17:58N 46°42' W 092°01'0 0.0
2017-Nov-15 17:30N 46°42' W 092°01'0 0.1
2017-Nov-15 16:44N 46°42' W 092°01'0 0.0
2017-Nov-15 16:27N 46°42' W 092°01'0 0.0
2017-Nov-15 15:59N 46°42' W 092°01'0 0.0
2017-Nov-15 15:30N 46°42' W 092°01'0 0.0
2017-Nov-15 15:00N 46°42' W 092°01'0 0.0
2017-Nov-15 14:30N 46°42' W 092°01'1 0.8
2017-Nov-15 13:45N 46°42' W 092°01'0 0.0
2017-Nov-15 13:17N 46°42' W 092°01'0 0.0
2017-Nov-15 12:58N 46°42' W 092°01'0 0.0
2017-Nov-15 12:30N 46°42' W 092°01'0 0.0
2017-Nov-15 11:51N 46°42' W 092°01'0 0.0
2017-Nov-15 11:24N 46°42' W 092°01'0 0.0
2017-Nov-15 10:49N 46°42' W 092°01'0 0.0
2017-Nov-15 10:08N 46°42' W 092°01'0 0.0
2017-Nov-15 09:59N 46°42' W 092°01'0 0.0
2017-Nov-15 09:29N 46°42' W 092°01'0 0.0
2017-Nov-15 08:54N 46°42' W 092°01'0 0.0
2017-Nov-15 08:21N 46°42' W 092°01'0 0.0
2017-Nov-15 07:50N 46°42' W 092°01'0 0.0
2017-Nov-15 07:26N 46°42' W 092°01'0 0.0
2017-Nov-15 06:59N 46°42' W 092°01'0 0.0
2017-Nov-15 06:30N 46°42' W 092°01'0 0.0
2017-Nov-15 05:20N 46°42' W 092°01'0 0.0
2017-Nov-15 04:14N 46°42' W 092°01'0 0.0
2017-Nov-15 03:59N 46°42' W 092°01'0 0.0
2017-Nov-15 03:29N 46°42' W 092°01'0 0.0
2017-Nov-15 02:52N 46°42' W 092°01'0 0.0
2017-Nov-15 01:49N 46°42' W 092°01'0 0.0
2017-Nov-15 01:28N 46°42' W 092°01'0 0.0
2017-Nov-15 00:56N 46°42' W 092°01'0 0.0
2017-Nov-15 00:27N 46°42' W 092°01'0 0.0
2017-Nov-15 00:00N 46°42' W 092°01'0 0.0
2017-Nov-14 23:29N 46°42' W 092°01'0 0.0
2017-Nov-14 22:59N 46°42' W 092°01'1 1.0
2017-Nov-14 22:24N 46°42' W 092°01'0 0.0
2017-Nov-14 21:59N 46°42' W 092°01'0 0.0
2017-Nov-14 21:21N 46°42' W 092°01'0 0.0
2017-Nov-14 20:47N 46°42' W 092°01'0 0.0
2017-Nov-14 20:24N 46°42' W 092°01'0 0.0
2017-Nov-14 19:48N 46°42' W 092°01'0 0.0
2017-Nov-14 19:21N 46°42' W 092°01'0 0.0
2017-Nov-14 19:00N 46°42' W 092°01'0 0.0
2017-Nov-14 18:29N 46°42' W 092°01'0 0.0
2017-Nov-14 17:57N 46°42' W 092°01'0 0.0
2017-Nov-14 17:30N 46°42' W 092°01'0 0.0
2017-Nov-14 17:00N 46°42' W 092°01'0 0.0
2017-Nov-14 16:29N 46°42' W 092°01'0 0.0
2017-Nov-14 15:54N 46°42' W 092°01'0 0.0
2017-Nov-14 15:26N 46°42' W 092°01'0 0.0
2017-Nov-14 14:59N 46°42' W 092°01'0 0.0
2017-Nov-14 14:30N 46°42' W 092°01'1 0.9
2017-Nov-14 13:50N 46°42' W 092°01'0 0.0
2017-Nov-14 13:26N 46°42' W 092°01'0 0.0
2017-Nov-14 13:00N 46°42' W 092°01'0 0.0
2017-Nov-14 12:30N 46°42' W 092°01'0 0.0
2017-Nov-14 11:43N 46°42' W 092°01'0 0.0
2017-Nov-14 11:27N 46°42' W 092°01'0 0.0
2017-Nov-14 10:23N 46°42' W 092°01'0 0.0
2017-Nov-14 09:54N 46°42' W 092°01'0 0.0
2017-Nov-14 09:29N 46°42' W 092°01'0 0.0
2017-Nov-14 08:58N 46°42' W 092°01'0 0.0
2017-Nov-14 08:25N 46°42' W 092°01'0 0.0
2017-Nov-14 07:58N 46°42' W 092°01'0 0.0
2017-Nov-14 07:16N 46°42' W 092°01'0 0.0
2017-Nov-14 06:55N 46°42' W 092°01'0 0.0
2017-Nov-14 05:54N 46°42' W 092°01'0 0.0
2017-Nov-14 05:25N 46°42' W 092°01'0 0.0
2017-Nov-14 03:53N 46°42' W 092°01'0 0.0
2017-Nov-14 03:02N 46°42' W 092°01'0 0.0
2017-Nov-14 02:53N 46°42' W 092°01'0 0.0
2017-Nov-14 02:20N 46°42' W 092°01'0 0.0
2017-Nov-14 01:57N 46°42' W 092°01'0 0.0
2017-Nov-14 01:02N 46°42' W 092°01'0 0.0
2017-Nov-14 00:56N 46°42' W 092°01'0 0.0
2017-Nov-14 00:30N 46°42' W 092°01'0 0.0
2017-Nov-13 23:42N 46°42' W 092°01'0 0.0
2017-Nov-13 23:24N 46°42' W 092°01'0 0.0
2017-Nov-13 23:00N 46°42' W 092°01'1 1.3
2017-Nov-13 22:30N 46°42' W 092°01'0 0.0
2017-Nov-13 22:00N 46°42' W 092°01'  
2017-Nov-08 22:26N 46°47' W 092°06'0 0.2
2017-Nov-08 22:00N 46°46' W 092°06'3 6.1
2017-Nov-08 21:30N 46°44' W 092°04'2 4.3
2017-Nov-08 20:58N 46°42' W 092°01'0 0.0
2017-Nov-08 20:30N 46°42' W 092°01'0 0.0
2017-Nov-08 20:00N 46°42' W 092°01'0 0.3
2017-Nov-08 19:29N 46°42' W 092°01'0 0.0
2017-Nov-08 18:59N 46°42' W 092°01'0 0.0
2017-Nov-08 18:25N 46°42' W 092°01'0 0.0
2017-Nov-08 17:58N 46°42' W 092°01'0 0.0
2017-Nov-08 17:23N 46°42' W 092°01'0 0.0
2017-Nov-08 16:54N 46°42' W 092°01'0 0.0
2017-Nov-08 16:29N 46°42' W 092°01'0 0.0
2017-Nov-08 15:58N 46°42' W 092°01'0 0.0
2017-Nov-08 15:26N 46°42' W 092°01'1 1.5
2017-Nov-08 15:00N 46°42' W 092°01'0 0.0
2017-Nov-08 14:30N 46°42' W 092°01'0 0.0
2017-Nov-08 13:59N 46°42' W 092°01'0 0.0
2017-Nov-08 13:30N 46°42' W 092°01'0 0.0
2017-Nov-08 12:58N 46°42' W 092°01'0 0.0
2017-Nov-08 12:29N 46°42' W 092°01'0 0.0
2017-Nov-08 12:00N 46°42' W 092°01'0 0.0
2017-Nov-08 11:30N 46°42' W 092°01'0 0.0
2017-Nov-08 10:59N 46°42' W 092°01'0 0.0
2017-Nov-08 10:28N 46°42' W 092°01'0 0.0
2017-Nov-08 09:57N 46°42' W 092°01'0 0.0
2017-Nov-08 09:17N 46°42' W 092°01'0 0.0
2017-Nov-08 08:59N 46°42' W 092°01'0 0.0
2017-Nov-08 08:29N 46°42' W 092°01'0 0.0
2017-Nov-08 06:55N 46°42' W 092°01'0 0.0
2017-Nov-08 05:54N 46°42' W 092°01'0 0.0
2017-Nov-08 05:29N 46°42' W 092°01'0 0.0
2017-Nov-08 04:46N 46°42' W 092°01'0 0.0
2017-Nov-08 04:30N 46°42' W 092°01'0 0.0
2017-Nov-08 03:56N 46°42' W 092°01'0 0.0
2017-Nov-08 02:28N 46°42' W 092°01'0 0.0
2017-Nov-08 01:59N 46°42' W 092°01'0 0.0
2017-Nov-08 01:03N 46°42' W 092°01'0 0.0
2017-Nov-08 00:33N 46°42' W 092°01'0 0.0
2017-Nov-08 00:23N 46°42' W 092°01'0 0.0
2017-Nov-08 00:00N 46°42' W 092°01'0 0.0
2017-Nov-07 23:23N 46°42' W 092°01'0 0.0
2017-Nov-07 23:00N 46°42' W 092°01'0 0.1
2017-Nov-07 22:30N 46°42' W 092°01'0 0.0
2017-Nov-07 21:59N 46°42' W 092°01'0 0.0
2017-Nov-07 21:30N 46°42' W 092°01'0 0.0
2017-Nov-07 21:00N 46°42' W 092°01'0 0.0
2017-Nov-07 20:29N 46°42' W 092°01'0 0.9
2017-Nov-07 20:00N 46°42' W 092°01'0 0.4
2017-Nov-07 19:30N 46°42' W 092°01'0 0.5
2017-Nov-07 19:00N 46°42' W 092°01'0 0.3
2017-Nov-07 18:18N 46°42' W 092°01'0 0.0
2017-Nov-07 17:58N 46°42' W 092°01'0 0.0
2017-Nov-07 17:20N 46°42' W 092°01'0 0.0
2017-Nov-07 16:56N 46°42' W 092°01'0 0.0
2017-Nov-07 16:27N 46°42' W 092°01'0 0.0
2017-Nov-07 16:00N 46°42' W 092°01'0 0.0
2017-Nov-07 15:29N 46°42' W 092°01'0 0.0
2017-Nov-07 14:56N 46°42' W 092°01'0 0.0
2017-Nov-07 14:30N 46°42' W 092°01'1 1.2
2017-Nov-07 14:00N 46°42' W 092°01'0 0.0
2017-Nov-07 13:30N 46°42' W 092°01'0 0.0
2017-Nov-07 12:59N 46°42' W 092°01'0 0.0
2017-Nov-07 12:26N 46°42' W 092°01'0 0.0
2017-Nov-07 12:00N 46°42' W 092°01'0 0.0
2017-Nov-07 10:34N 46°42' W 092°01'0 0.1
2017-Nov-07 10:28N 46°42' W 092°01'0 0.0
2017-Nov-07 10:00N 46°42' W 092°01'0 0.0
2017-Nov-07 09:28N 46°42' W 092°01'0 0.0
2017-Nov-07 08:52N 46°42' W 092°01'0 0.0
2017-Nov-07 08:28N 46°42' W 092°01'0 0.0
2017-Nov-07 08:00N 46°42' W 092°01'0 0.0
2017-Nov-07 07:29N 46°42' W 092°01'0 0.0
2017-Nov-07 06:58N 46°42' W 092°01'0 0.0
2017-Nov-07 05:53N 46°42' W 092°01'0 0.0
2017-Nov-07 05:23N 46°42' W 092°01'0 0.0
2017-Nov-07 04:59N 46°42' W 092°01'0 0.0
2017-Nov-07 03:38N 46°42' W 092°01'0 0.0
2017-Nov-07 03:29N 46°42' W 092°01'0 0.0
2017-Nov-07 03:00N 46°42' W 092°01'0 0.0
2017-Nov-07 02:26N 46°42' W 092°01'0 0.0
2017-Nov-07 02:00N 46°42' W 092°01'0 0.0
2017-Nov-07 00:42N 46°42' W 092°01'0 0.0
2017-Nov-07 00:24N 46°42' W 092°01'0 0.0
2017-Nov-06 23:38N 46°42' W 092°01'0 0.0
2017-Nov-06 23:29N 46°42' W 092°01'0 0.0
2017-Nov-06 22:56N 46°42' W 092°01'1 1.3
2017-Nov-06 22:28N 46°42' W 092°01'0 0.0
2017-Nov-06 21:59N 46°42' W 092°01'1 1.2
2017-Nov-06 21:30N 46°42' W 092°01'0 0.0
2017-Nov-06 20:47N 46°42' W 092°01'  

Dump ship's entire track history